Venice, CA

00:48 PDT le 02 avril 2015 (GMT -0700)
Abbot Kinney | | Change Station
CLOSE
Current Station
Stations météorologiques personnelles
Location: Venice, CA
Altitude: 20 ft
Stations météo à proximité
Avis météorologiques actifs: Beach Hazard Statement Préavis actif: Record Report, Public Information Statement

Alt. 20 ft 33.99 °N, 118.47 °W | Updated 26 seconds ago

Clear
Ciel dégagé
57.5 ° F
Paraît 57.5 ° F
N
0.0
Vent Variable Vent de OSO
Gusts 0.0 mph

Aujourd'hui
Haut(e) -- | Bas -- ° F
--% Risque de précip.
Hier
Haut(e) -- | Bas -- ° F
Precip. -- pouce
6:40 AM 7:15 PM
Lune gibbeuse croissante, 96% visible
Pression 29.95 pouce
Visibilité 10.0 Miles terrestres
Nuages Ciel dégagé
Point de rosée 52 ° F
Humidité 81%
Précipitations 0.00 pouce
Profondeur de la couche neigeuse Non disponible.
UV 0.0 sur 12
Pollen 9.50 sur 12
Qualité de l'air Non disponible.
Flu Activity Non disponible.
METAR KSMO 020651Z 12004KT 10SM CLR 15/10 A2995 RMK AO2 SLP142 T01500100

More Conditions Fewer Conditions

Pression 29.95 pouce
Visibilité 10.0 Miles terrestres
Nuages Ciel dégagé
Point de rosée 52 ° F
Humidité 81%
Précipitations 0.00 pouce
Profondeur de la couche neigeuse Non disponible.
UV 0.0 sur 12
Pollen 9.50 sur 12
Qualité de l'air Non disponible.
Flu Activity Non disponible.
METAR KSMO 020651Z 12004KT 10SM CLR 15/10 A2995 RMK AO2 SLP142 T01500100

More Conditions Fewer Conditions

10-Day Weather Forecast

Almanac

Astronomie

Apr. 02, 2015 Lever Coucher
Temps réel
Crépuscule civil
Crépuscule nautique
Crépuscule astronomique
Lune
Durée de lumière visible
Longueur du jour
Tomorrow will be .
, % of the Moon is Illuminated

Extrêmes aujourd'hui

State Highs State Lows

Community

WunderPhotos

Upload Photos

1,810,206 Photos téléchargées !

WunderBlogs® & News

Nearby

Qualité de l'air

  Qualité de l'air Indice de la qualité de l'air Polluant
Not available.

Épaisseur de neige

Station Depth Altitude

Activité sismique

Ville Distance Mag. Time & Date
Minimum magnitude displayed is 2.5.

Températures des eaux côtières

Lieu Température

Stations

Stations météo à proximité

Emplacement de la station Température Refroidissement éolien Point de rosée Humidité Vent Precip. Alt. Mise à jour Type
                   
Beach Hazard Statement
Statement as of 21:39 PDT le 01 avril 2015

... Beach hazards statement remains in effect until 3 am PDT
Thursday...

* hazards... dangerous rip currents and breaking waves on coastal
rock jetties are expected through late tonight.

* Impacts... there is an increased risk for ocean drowning. Rip
currents can pull swimmers and surfers out to sea. Waves can
suddenly wash people off of beaches and coastal rock jetties.

Precautionary/preparedness actions...

A beach hazards statement is issued when threats to beach and
surf zone safety are expected or occurring. Caution should be
used when in or near the water. Stay near occupied lifeguard
towers and never swim alone. If caught in a rip current... swim
parallel to the shore.